createdAt,value
2017-10-06T08:04:17.731Z,10.36
2017-10-06T08:05:27.691Z,10.38
2017-10-06T08:06:37.345Z,10.45
2017-10-06T08:07:47.623Z,10.42
2017-10-06T08:08:57.364Z,10.31
2017-10-06T08:10:07.645Z,10.38
2017-10-06T08:11:17.924Z,10.43
2017-10-06T08:12:28.201Z,10.49
2017-10-06T08:13:38.482Z,10.39
2017-10-06T08:14:48.367Z,10.46
2017-10-06T08:15:58.646Z,10.49
2017-10-06T08:17:08.601Z,10.51
2017-10-06T08:18:18.234Z,10.46
2017-10-06T08:19:28.533Z,10.41
2017-10-06T08:20:38.920Z,10.33
2017-10-06T08:21:48.881Z,10.38
2017-10-06T08:22:59.162Z,10.3
2017-10-06T08:24:09.440Z,10.38
2017-10-06T08:25:19.721Z,10.39
2017-10-06T08:26:30.094Z,10.33
2017-10-06T08:27:40.371Z,10.41
2017-10-06T08:28:50.330Z,10.51
2017-10-06T08:30:00.607Z,10.45
2017-10-06T08:31:10.571Z,10.45
2017-10-06T08:32:20.184Z,10.46
2017-10-06T08:33:30.489Z,10.45
2017-10-06T08:34:40.144Z,10.42
2017-10-06T08:35:50.426Z,10.51
2017-10-06T08:37:00.748Z,10.46
2017-10-06T08:38:10.549Z,10.51
2017-10-06T08:39:20.518Z,10.53
2017-10-06T08:40:30.793Z,10.61
2017-10-06T08:41:41.078Z,10.62
2017-10-06T08:42:51.357Z,10.51
2017-10-06T08:44:01.736Z,10.59
2017-10-06T08:45:11.372Z,10.59
2017-10-06T08:46:21.004Z,10.59
2017-10-06T08:47:31.283Z,10.8
2017-10-06T08:48:41.246Z,10.87
2017-10-06T08:49:53.824Z,10.9
2017-10-06T08:51:03.463Z,11
2017-10-06T08:52:13.776Z,11.04
2017-10-06T08:53:23.738Z,11.04
2017-10-06T08:54:34.018Z,11.04
2017-10-06T08:55:44.087Z,11.1
2017-10-06T08:56:54.363Z,11.04
2017-10-06T08:58:04.316Z,11.12
2017-10-06T08:59:13.635Z,11.16
2017-10-06T09:00:23.589Z,11.3
2017-10-06T09:01:33.646Z,11.3
2017-10-06T09:02:43.606Z,11.3
2017-10-06T09:03:53.242Z,11.26
2017-10-06T09:05:03.198Z,11.43
2017-10-06T09:06:12.832Z,11.43
2017-10-06T09:07:23.051Z,11.44
2017-10-06T09:08:33.329Z,11.51
2017-10-06T09:09:43.611Z,11.49
2017-10-06T09:10:53.894Z,11.52
2017-10-06T09:12:03.849Z,11.48
2017-10-06T09:13:13.955Z,11.44
2017-10-06T09:14:23.280Z,11.52
2017-10-06T09:15:33.237Z,11.52
2017-10-06T09:16:43.200Z,11.51
2017-10-06T09:17:53.480Z,11.52
2017-10-06T09:19:03.217Z,11.48
2017-10-06T09:20:13.176Z,11.52
2017-10-06T09:21:23.458Z,11.53
2017-10-06T09:22:33.411Z,11.56
2017-10-06T09:23:43.690Z,11.49
2017-10-06T09:24:53.757Z,11.49
2017-10-06T09:26:03.711Z,11.49
2017-10-06T09:27:13.346Z,11.56
2017-10-06T09:28:22.982Z,11.63
2017-10-06T09:29:33.274Z,11.67
2017-10-06T09:30:43.653Z,11.62
2017-10-06T09:31:53.969Z,11.65
2017-10-06T09:33:03.924Z,11.65
2017-10-06T09:34:14.204Z,11.68
2017-10-06T09:35:24.168Z,11.77
2017-10-06T09:36:34.223Z,11.74
2017-10-06T09:37:43.857Z,11.68
2017-10-06T09:38:53.814Z,11.74
2017-10-06T09:40:03.772Z,11.76
2017-10-06T09:41:13.732Z,11.81
2017-10-06T09:42:23.940Z,11.81
2017-10-06T09:43:33.900Z,11.78
2017-10-06T09:44:43.884Z,11.8
2017-10-06T09:45:53.531Z,11.78
2017-10-06T09:47:03.486Z,11.78
2017-10-06T09:48:13.869Z,11.81
2017-10-06T09:49:23.510Z,11.78
2017-10-06T09:50:33.793Z,11.77
2017-10-06T09:51:43.758Z,11.86
2017-10-06T09:52:54.042Z,11.89
2017-10-06T09:54:04.132Z,11.93
2017-10-06T09:55:13.766Z,11.97
2017-10-06T09:56:24.043Z,12.12
2017-10-06T09:57:34.008Z,12.14
2017-10-06T09:58:43.987Z,12.2
2017-10-06T09:59:54.256Z,12.2
2017-10-06T10:01:03.900Z,12.14
2017-10-06T10:02:13.541Z,12.21
2017-10-06T10:03:23.830Z,12.21
2017-10-06T10:04:34.157Z,12.28
2017-10-06T10:05:44.550Z,12.39
2017-10-06T10:06:54.831Z,12.4
2017-10-06T10:08:04.787Z,12.39
2017-10-06T10:09:14.741Z,12.37
2017-10-06T10:10:25.027Z,12.3
2017-10-06T10:11:36.442Z,12.47
2017-10-06T10:12:46.722Z,12.47
2017-10-06T10:13:57.001Z,12.57
2017-10-06T10:15:06.638Z,12.61
2017-10-06T10:16:16.597Z,12.63
2017-10-06T10:17:26.975Z,12.66
2017-10-06T10:18:36.934Z,12.75
2017-10-06T10:19:46.893Z,12.69
2017-10-06T10:20:56.848Z,12.81
2017-10-06T10:22:07.130Z,12.93
2017-10-06T10:23:16.544Z,12.9
2017-10-06T10:24:26.827Z,12.93
2017-10-06T10:25:36.794Z,12.99
2017-10-06T10:26:46.750Z,12.87
2017-10-06T10:27:57.033Z,12.84
2017-10-06T10:29:07.412Z,12.83
2017-10-06T10:30:16.726Z,12.86
2017-10-06T10:31:27.005Z,12.86
2017-10-06T10:32:37.000Z,12.88
2017-10-06T10:33:46.958Z,12.94
2017-10-06T10:34:57.337Z,12.98
2017-10-06T10:36:06.991Z,12.99
2017-10-06T10:37:16.950Z,13.06
2017-10-06T10:38:26.910Z,12.94
2017-10-06T10:39:37.197Z,13.06
2017-10-06T10:40:47.587Z,13.05
2017-10-06T10:41:57.870Z,13.09
2017-10-06T10:43:07.523Z,13.13
2017-10-06T10:44:17.805Z,13.28
2017-10-06T10:45:27.443Z,13.36
2017-10-06T10:46:37.505Z,13.39
2017-10-06T10:47:47.464Z,13.3
2017-10-06T10:48:57.428Z,13.57
2017-10-06T10:50:07.721Z,13.85
2017-10-06T10:51:17.357Z,14.12
2017-10-06T10:52:27.419Z,14.3
2017-10-06T10:53:37.059Z,14.56
2017-10-06T10:54:47.346Z,14.62
2017-10-06T10:55:56.985Z,14.79
2017-10-06T10:57:07.264Z,14.67
2017-10-06T10:58:19.651Z,14.82
2017-10-06T10:59:29.611Z,14.9
2017-10-06T11:00:39.914Z,14.97
2017-10-06T11:01:49.877Z,15.1
2017-10-06T11:02:59.843Z,15.19
2017-10-06T11:04:12.428Z,15.25
2017-10-06T11:05:22.713Z,15.05
2017-10-06T11:06:32.997Z,15.04
2017-10-06T11:07:43.312Z,14.63
2017-10-06T11:08:53.598Z,14.38
2017-10-06T11:10:03.987Z,14.38
2017-10-06T11:11:14.011Z,14.43
2017-10-06T11:12:23.328Z,14.63
2017-10-06T11:13:33.287Z,14.67
2017-10-06T11:14:42.928Z,14.85
2017-10-06T11:15:52.996Z,15.17
2017-10-06T11:17:02.959Z,15.41
2017-10-06T11:18:12.604Z,15.43
2017-10-06T11:19:22.255Z,15.75
2017-10-06T11:20:32.543Z,15.73
2017-10-06T11:21:43.179Z,15.44
2017-10-06T11:22:53.142Z,15.43
2017-10-06T11:24:03.106Z,15.65
2017-10-06T11:25:12.748Z,15.78
2017-10-06T11:26:22.399Z,16.09
2017-10-06T11:27:32.836Z,16.51
2017-10-06T11:28:43.128Z,16.51
2017-10-06T11:29:53.093Z,16.68
2017-10-06T11:31:03.410Z,16.65
2017-10-06T11:32:13.705Z,16.69
2017-10-06T11:33:22.916Z,17.04
2017-10-06T11:34:32.461Z,16.97
2017-10-06T11:35:42.634Z,16.97
2017-10-06T11:36:53.018Z,16.95
2017-10-06T11:38:03.025Z,17.1
2017-10-06T11:39:12.829Z,17.17
2017-10-06T11:40:22.474Z,17.22
2017-10-06T11:41:32.444Z,17.23
2017-10-06T11:42:42.735Z,17.78
2017-10-06T11:43:52.378Z,18.02
2017-10-06T11:45:02.497Z,18.48
2017-10-06T11:46:12.467Z,19.01
2017-10-06T11:47:22.123Z,19.48
2017-10-06T11:48:31.769Z,19.04
2017-10-06T11:49:41.739Z,19.37
2017-10-06T11:50:51.488Z,19.59
2017-10-06T11:52:00.811Z,19.75
2017-10-06T11:53:10.780Z,19.62
2017-10-06T11:54:20.751Z,19.38
2017-10-06T11:55:30.729Z,19.23
2017-10-06T11:56:41.123Z,19.87
2017-10-06T11:57:51.103Z,20.3
2017-10-06T11:59:01.394Z,20.37
2017-10-06T12:00:11.703Z,20.17
2017-10-06T12:01:21.675Z,19.92
2017-10-06T12:02:31.177Z,19.75
2017-10-06T12:03:40.826Z,19.45
2017-10-06T12:04:51.123Z,19.72
2017-10-06T12:06:00.770Z,19.42
2017-10-06T12:07:10.094Z,19.05
2017-10-06T12:08:20.433Z,18.55
2017-10-06T12:09:30.729Z,18.52
2017-10-06T12:10:41.023Z,18.26
2017-10-06T12:11:50.996Z,17.84
2017-10-06T12:13:00.966Z,17.49
2017-10-06T12:14:11.089Z,16.99
2017-10-06T12:15:21.058Z,16.61
2017-10-06T12:16:31.343Z,16.58
2017-10-06T12:17:40.989Z,16.03
2017-10-06T12:18:50.956Z,15.83
2017-10-06T12:20:01.343Z,15.81
2017-10-06T12:21:11.318Z,15.55
2017-10-06T12:22:21.282Z,15.51
2017-10-06T12:23:31.567Z,15.33
2017-10-06T12:24:41.856Z,15.19
2017-10-06T12:25:52.275Z,15.05
2017-10-06T12:27:02.249Z,15.04
2017-10-06T12:28:12.220Z,14.99
2017-10-06T12:29:22.514Z,14.93
2017-10-06T12:30:32.800Z,14.85
2017-10-06T12:31:43.191Z,14.79
2017-10-06T12:32:52.831Z,14.66
2017-10-06T12:34:02.474Z,14.7
2017-10-06T12:35:12.120Z,14.71
2017-10-06T12:36:22.402Z,14.74
2017-10-06T12:37:32.469Z,14.94
2017-10-06T12:38:42.431Z,15.05
2017-10-06T12:39:51.750Z,15.08
2017-10-06T12:41:01.392Z,14.82
2017-10-06T12:42:11.049Z,14.82
2017-10-06T12:43:21.310Z,14.92
2017-10-06T12:44:30.958Z,14.93
2017-10-06T12:45:40.921Z,14.99
2017-10-06T12:46:50.244Z,15.02
2017-10-06T12:48:00.213Z,15.08
2017-10-06T12:49:10.284Z,15.1
2017-10-06T12:50:20.572Z,14.99
2017-10-06T12:51:30.866Z,14.99
2017-10-06T12:52:40.511Z,15.02
2017-10-06T12:53:50.804Z,15
2017-10-06T12:55:01.149Z,14.96
2017-10-06T12:56:11.114Z,14.97
2017-10-06T12:57:21.410Z,14.87
2017-10-06T12:58:31.377Z,14.86
2017-10-06T12:59:41.662Z,14.93
2017-10-06T13:00:52.060Z,14.96
2017-10-06T13:02:02.371Z,14.97
2017-10-06T13:03:12.016Z,14.96
2017-10-06T13:04:22.308Z,14.89
2017-10-06T13:05:32.594Z,14.87
2017-10-06T13:06:42.981Z,14.82
2017-10-06T13:07:52.942Z,14.81
2017-10-06T13:09:02.592Z,14.82
2017-10-06T13:10:12.877Z,14.85
2017-10-06T13:11:23.166Z,14.77
2017-10-06T13:12:33.550Z,14.79
2017-10-06T13:13:43.194Z,14.73
2017-10-06T13:14:53.480Z,14.87
2017-10-06T13:16:03.765Z,14.9
2017-10-06T13:17:13.088Z,14.81
2017-10-06T13:18:23.471Z,14.73
2017-10-06T13:19:33.437Z,14.73
2017-10-06T13:20:43.398Z,14.73
2017-10-06T13:21:53.684Z,14.81
2017-10-06T13:23:03.972Z,14.89
2017-10-06T13:24:13.716Z,14.9
2017-10-06T13:25:23.679Z,14.82
2017-10-06T13:26:33.968Z,14.82
2017-10-06T13:27:43.612Z,14.9
2017-10-06T13:28:53.581Z,14.78
2017-10-06T13:30:03.644Z,14.86
2017-10-06T13:31:13.314Z,14.7
2017-10-06T13:32:23.279Z,14.78
2017-10-06T13:33:32.597Z,14.93
2017-10-06T13:34:42.567Z,14.94
2017-10-06T13:35:52.308Z,14.87
2017-10-06T13:37:02.592Z,14.9
2017-10-06T13:38:12.875Z,14.86
2017-10-06T13:39:22.517Z,14.86
2017-10-06T13:40:32.480Z,14.85
2017-10-06T13:41:43.118Z,14.85
2017-10-06T13:42:53.411Z,14.87
2017-10-06T13:44:03.692Z,14.81
2017-10-06T13:45:13.975Z,14.77
2017-10-06T13:46:23.937Z,14.79
2017-10-06T13:47:33.996Z,14.71
2017-10-06T13:48:43.959Z,14.73
2017-10-06T13:49:54.250Z,14.67
2017-10-06T13:51:04.210Z,14.56
2017-10-06T13:52:14.494Z,14.55
2017-10-06T13:53:24.880Z,14.59
2017-10-06T13:54:35.167Z,14.56
2017-10-06T13:55:44.808Z,14.59
2017-10-06T13:56:54.774Z,14.66
2017-10-06T13:58:05.053Z,14.66
2017-10-06T13:59:15.119Z,14.61
2017-10-06T14:00:25.410Z,14.48
2017-10-06T14:01:35.693Z,14.53
2017-10-06T14:02:45.990Z,14.55
2017-10-06T14:03:56.272Z,14.49
2017-10-06T14:05:06.336Z,14.48
2017-10-06T14:06:16.302Z,14.45
2017-10-06T14:07:25.941Z,14.45
2017-10-06T14:08:35.257Z,14.45
2017-10-06T14:09:45.223Z,14.51
2017-10-06T14:10:55.285Z,14.52
2017-10-06T14:12:05.567Z,14.51
2017-10-06T14:13:15.857Z,14.41
2017-10-06T14:14:26.145Z,14.52
2017-10-06T14:15:36.105Z,14.48
2017-10-06T14:16:46.366Z,14.61
2017-10-06T14:17:56.334Z,14.56
2017-10-06T14:19:06.299Z,14.45
2017-10-06T14:20:16.582Z,14.36
2017-10-06T14:21:26.556Z,14.33
2017-10-06T14:22:40.671Z,14.36
2017-10-06T14:23:50.321Z,14.45
2017-10-06T14:25:00.286Z,14.36
2017-10-06T14:26:10.580Z,14.33
2017-10-06T14:27:20.219Z,14.31
2017-10-06T14:28:30.612Z,14.33
2017-10-06T14:29:40.262Z,14.28
2017-10-06T14:30:50.543Z,14.4
2017-10-06T14:32:00.827Z,14.28
2017-10-06T14:33:10.798Z,14.08
2017-10-06T14:34:21.108Z,14.11
2017-10-06T14:35:31.407Z,13.94
2017-10-06T14:36:41.373Z,13.82
2017-10-06T14:37:51.336Z,13.8
2017-10-06T14:39:01.629Z,13.76
2017-10-06T14:40:12.020Z,13.7
2017-10-06T14:41:22.305Z,13.67
2017-10-06T14:42:32.591Z,13.67
2017-10-06T14:43:42.875Z,13.65
2017-10-06T14:44:52.839Z,13.62
2017-10-06T14:46:02.907Z,13.57
2017-10-06T14:47:12.869Z,13.52
2017-10-06T14:48:23.155Z,13.4
2017-10-06T14:49:33.117Z,13.47
2017-10-06T14:50:43.080Z,13.33
2017-10-06T14:51:53.471Z,13.43
2017-10-06T14:53:03.757Z,13.37
2017-10-06T14:54:13.395Z,13.43
2017-10-06T14:55:23.693Z,13.37
2017-10-06T14:56:33.652Z,13.33
2017-10-06T14:57:43.773Z,13.39
2017-10-06T14:58:53.412Z,13.43
2017-10-06T15:00:03.375Z,13.28
2017-10-06T15:01:13.660Z,13.42
2017-10-06T15:02:23.621Z,13.42
2017-10-06T15:03:33.680Z,13.39
2017-10-06T15:04:43.639Z,13.37
2017-10-06T15:05:53.603Z,13.24
2017-10-06T15:07:03.564Z,13.27
2017-10-06T15:08:13.534Z,13.28
2017-10-06T15:09:23.284Z,13.16
2017-10-06T15:10:33.564Z,13.27
2017-10-06T15:11:43.531Z,13.17
2017-10-06T15:12:53.811Z,13.13
2017-10-06T15:14:03.451Z,13.13
2017-10-06T15:15:13.513Z,13.13
2017-10-06T15:16:23.795Z,13.05
2017-10-06T15:17:33.760Z,12.98
2017-10-06T15:18:43.081Z,13.01
2017-10-06T15:19:53.047Z,12.94
2017-10-06T15:21:03.142Z,12.93
2017-10-06T15:22:13.115Z,13.01
2017-10-06T15:23:23.414Z,12.94
2017-10-06T15:24:33.056Z,12.99
2017-10-06T15:25:42.744Z,12.94
2017-10-06T15:26:55.332Z,12.93
2017-10-06T15:28:05.296Z,12.94
2017-10-06T15:29:15.582Z,13.02
2017-10-06T15:30:25.544Z,12.94
2017-10-06T15:31:35.844Z,12.87
2017-10-06T15:32:45.577Z,12.91
2017-10-06T15:33:55.859Z,12.86
2017-10-06T15:35:06.149Z,12.84
2017-10-06T15:36:16.445Z,12.83
2017-10-06T15:37:26.738Z,12.81
2017-10-06T15:38:36.476Z,12.76
2017-10-06T15:39:46.439Z,12.8
2017-10-06T15:40:56.401Z,12.8
2017-10-06T15:42:06.365Z,12.72
2017-10-06T15:43:16.326Z,12.8
2017-10-06T15:44:26.907Z,12.81
2017-10-06T15:45:36.559Z,12.78
2017-10-06T15:46:46.841Z,12.9
2017-10-06T15:47:56.480Z,12.88
2017-10-06T15:49:06.771Z,12.86
2017-10-06T15:50:16.508Z,12.8
2017-10-06T15:51:26.789Z,12.65
2017-10-06T15:52:36.428Z,12.62
2017-10-06T15:53:46.065Z,12.5
2017-10-06T15:54:56.346Z,12.48
2017-10-06T15:56:06.732Z,12.4
2017-10-06T15:57:17.014Z,12.39
2017-10-06T15:58:27.308Z,12.35
2017-10-06T15:59:37.590Z,12.28
2017-10-06T16:00:47.550Z,12.29
2017-10-06T16:01:57.610Z,12.28
2017-10-06T16:03:07.889Z,12.29
2017-10-06T16:04:18.166Z,12.28
2017-10-06T16:05:28.445Z,12.23
2017-10-06T16:06:38.406Z,12.25
2017-10-06T16:07:48.146Z,12.25
2017-10-06T16:08:58.434Z,12.28
2017-10-06T16:10:08.072Z,12.18
2017-10-06T16:11:18.353Z,12.12
2017-10-06T16:12:28.320Z,11.97
2017-10-06T16:13:38.056Z,11.95
2017-10-06T16:14:48.013Z,11.83
2017-10-06T16:15:57.652Z,11.93
2017-10-06T16:17:07.930Z,11.8
2017-10-06T16:18:17.896Z,11.68
2017-10-06T16:19:28.277Z,11.67
2017-10-06T16:20:38.256Z,11.65
2017-10-06T16:21:48.539Z,11.63
2017-10-06T16:22:58.527Z,11.65
2017-10-06T16:24:08.840Z,11.6
2017-10-06T16:25:18.911Z,11.56
2017-10-06T16:26:29.191Z,11.58
2017-10-06T16:27:38.829Z,11.62
2017-10-06T16:28:48.785Z,11.56
2017-10-06T16:29:59.063Z,11.51
2017-10-06T16:31:09.445Z,11.48
2017-10-06T16:32:19.402Z,11.51
2017-10-06T16:33:29.361Z,11.38
2017-10-06T16:34:39.323Z,11.4
2017-10-06T16:35:49.606Z,11.38
2017-10-06T16:36:59.595Z,11.52
2017-10-06T16:38:09.232Z,11.55
2017-10-06T16:39:19.187Z,11.41
2017-10-06T16:40:29.469Z,11.38
2017-10-06T16:41:39.745Z,11.41
2017-10-06T16:42:49.157Z,11.45
2017-10-06T16:43:59.434Z,11.45
2017-10-06T16:45:09.395Z,11.48
2017-10-06T16:46:19.352Z,11.53
2017-10-06T16:47:29.310Z,11.48
2017-10-06T16:48:39.368Z,11.55
2017-10-06T16:49:49.013Z,11.51
2017-10-06T16:50:58.974Z,11.56
2017-10-06T16:52:08.620Z,11.58
2017-10-06T16:53:18.579Z,11.59
2017-10-06T16:54:28.636Z,11.62
2017-10-06T16:55:38.593Z,11.63
2017-10-06T16:56:48.873Z,11.65
2017-10-06T16:57:58.828Z,11.62
2017-10-06T16:59:09.110Z,11.65
2017-10-06T17:00:19.639Z,11.65
2017-10-06T17:01:29.598Z,11.62
2017-10-06T17:02:39.555Z,11.6
2017-10-06T17:03:49.191Z,11.59
2017-10-06T17:04:59.148Z,11.7
2017-10-06T17:06:09.206Z,11.67
2017-10-06T17:07:19.487Z,11.6
2017-10-06T17:08:29.765Z,11.67
2017-10-06T17:09:40.052Z,11.63
2017-10-06T17:10:50.339Z,11.6
2017-10-06T17:12:00.722Z,11.63
2017-10-06T17:13:10.684Z,11.65
2017-10-06T17:14:20.654Z,11.62
2017-10-06T17:15:30.932Z,11.6
2017-10-06T17:16:41.214Z,11.56
2017-10-06T17:17:50.626Z,11.55
2017-10-06T17:19:00.584Z,11.49
2017-10-06T17:20:10.868Z,11.53
2017-10-06T17:21:21.144Z,11.49
2017-10-06T17:22:31.103Z,11.53
2017-10-06T17:23:41.160Z,11.53
2017-10-06T17:24:51.443Z,11.52
2017-10-06T17:26:01.725Z,11.52
2017-10-06T17:27:12.009Z,11.52
2017-10-06T17:28:21.968Z,11.53
2017-10-06T17:29:32.025Z,11.44
2017-10-06T17:30:41.985Z,11.43
2017-10-06T17:31:52.267Z,11.45
2017-10-06T17:33:02.230Z,11.44
2017-10-06T17:34:12.189Z,11.37
2017-10-06T17:35:22.770Z,11.38
2017-10-06T17:36:32.736Z,11.31
2017-10-06T17:37:42.376Z,11.26
2017-10-06T17:38:52.367Z,11.3
2017-10-06T17:40:02.326Z,11.22
2017-10-06T17:41:12.386Z,11.2
2017-10-06T17:42:22.668Z,11.2
2017-10-06T17:43:32.952Z,11.31
2017-10-06T17:44:42.269Z,11.3
2017-10-06T17:45:51.904Z,11.2
2017-10-06T17:47:01.963Z,11.23
2017-10-06T17:48:11.923Z,11.33
2017-10-06T17:49:21.890Z,11.25
2017-10-06T17:50:31.846Z,11.2
2017-10-06T17:51:41.807Z,11.3
2017-10-06T17:52:51.864Z,11.22
2017-10-06T17:54:01.825Z,11.25
2017-10-06T17:55:12.114Z,11.18
2017-10-06T17:56:21.749Z,11.25
2017-10-06T17:57:32.064Z,11.2
2017-10-06T17:58:42.451Z,11.19
2017-10-06T17:59:51.764Z,11.19
2017-10-06T18:01:01.721Z,11.25
2017-10-06T18:02:12.009Z,11.15
2017-10-06T18:03:22.289Z,11.13
2017-10-06T18:04:32.678Z,11.16
2017-10-06T18:05:42.641Z,11.16
2017-10-06T18:06:52.277Z,11.12
2017-10-06T18:08:02.591Z,11.02
2017-10-06T18:09:12.225Z,11.07
2017-10-06T18:10:22.284Z,11.02
2017-10-06T18:11:32.564Z,11.02
2017-10-06T18:12:42.851Z,11.07
2017-10-06T18:13:53.133Z,10.98
2017-10-06T18:15:03.093Z,11.02
2017-10-06T18:16:13.152Z,11.12
2017-10-06T18:17:23.433Z,11.01
2017-10-06T18:18:33.710Z,11.13
2017-10-06T18:19:43.989Z,11.1
2017-10-06T18:20:54.279Z,11.22
2017-10-06T18:22:06.668Z,11.2
2017-10-06T18:23:16.950Z,11.22
2017-10-06T18:24:27.238Z,11.18
2017-10-06T18:25:37.199Z,11.2
2017-10-06T18:26:47.156Z,11.25
2017-10-06T18:27:57.685Z,11.26
2017-10-06T18:29:07.645Z,11.26
2017-10-06T18:30:17.926Z,11.25
2017-10-06T18:31:28.208Z,11.27
2017-10-06T18:32:38.169Z,11.26
2017-10-06T18:33:48.548Z,11.27
2017-10-06T18:34:58.835Z,11.33
2017-10-06T18:36:08.797Z,11.27
2017-10-06T18:37:18.760Z,11.2
2017-10-06T18:38:28.720Z,11.2
2017-10-06T18:39:38.779Z,11.22
2017-10-06T18:40:48.737Z,11.15
2017-10-06T18:41:59.019Z,11.08
2017-10-06T18:43:08.982Z,11.07
2017-10-06T18:44:18.951Z,11.02
2017-10-06T18:45:29.263Z,11.05
2017-10-06T18:46:39.553Z,11.01
2017-10-06T18:47:49.518Z,11.05
2017-10-06T18:48:59.475Z,10.92
2017-10-06T18:50:09.432Z,10.87
2017-10-06T18:51:21.812Z,10.68
2017-10-06T18:52:31.768Z,10.46
2017-10-06T18:53:41.725Z,10.33
2017-10-06T18:54:51.681Z,10.17
2017-10-06T18:56:01.314Z,9.95
2017-10-06T18:57:11.373Z,9.9
2017-10-06T18:58:21.652Z,9.77
2017-10-06T18:59:31.932Z,9.66
2017-10-06T19:00:41.243Z,9.59
2017-10-06T19:01:51.530Z,9.45
2017-10-06T19:03:01.908Z,9.4
2017-10-06T19:04:11.871Z,9.36
2017-10-06T19:05:21.828Z,9.37
2017-10-06T19:06:31.797Z,9.37
2017-10-06T19:07:41.753Z,9.31
2017-10-06T19:08:51.807Z,9.18
2017-10-06T19:10:02.084Z,9.15
2017-10-06T19:11:12.048Z,9.12
2017-10-06T19:12:22.004Z,9.19
2017-10-06T19:13:32.285Z,9.15
2017-10-06T19:14:42.672Z,9.13
2017-10-06T19:15:52.631Z,9.13
2017-10-06T19:17:02.914Z,9.18
2017-10-06T19:18:12.871Z,9.16
2017-10-06T19:19:23.151Z,9.13
2017-10-06T19:20:33.536Z,9.19
2017-10-06T19:21:43.811Z,9.29
2017-10-06T19:22:54.102Z,9.29
2017-10-06T19:24:04.381Z,9.33
2017-10-06T19:25:14.015Z,9.44
2017-10-06T19:26:24.079Z,9.54
2017-10-06T19:27:34.062Z,9.48
2017-10-06T19:28:44.355Z,9.52
2017-10-06T19:29:54.634Z,9.54
2017-10-06T19:31:04.928Z,9.59
2017-10-06T19:32:15.235Z,9.52
2017-10-06T19:33:24.880Z,9.52
2017-10-06T19:34:34.837Z,9.59
2017-10-06T19:35:44.794Z,9.58
2017-10-06T19:36:54.750Z,9.44
2017-10-06T19:38:04.809Z,9.51
2017-10-06T19:39:14.771Z,9.42
2017-10-06T19:40:25.080Z,9.36
2017-10-06T19:41:35.037Z,9.22
2017-10-06T19:42:45.000Z,9.29
2017-10-06T19:43:55.059Z,9.15
2017-10-06T19:45:05.023Z,9.18
2017-10-06T19:46:14.988Z,9.12
2017-10-06T19:47:25.267Z,9.08
2017-10-06T19:48:34.578Z,9.05
2017-10-06T19:49:44.636Z,8.97
2017-10-06T19:50:53.948Z,8.93
2017-10-06T19:52:03.912Z,8.93
2017-10-06T19:53:13.874Z,8.82
2017-10-06T19:54:24.152Z,8.87
2017-10-06T19:55:34.419Z,8.89
2017-10-06T19:56:44.376Z,8.84
2017-10-06T19:57:54.652Z,8.78
2017-10-06T19:59:04.939Z,8.84
2017-10-06T20:00:14.904Z,8.77
2017-10-06T20:01:27.214Z,8.75
2017-10-06T20:02:37.175Z,8.74
2017-10-06T20:03:47.144Z,8.68
2017-10-06T20:04:57.418Z,8.69
2017-10-06T20:06:07.058Z,8.74
2017-10-06T20:07:17.439Z,8.66
2017-10-06T20:08:27.393Z,8.71
2017-10-06T20:09:37.354Z,8.75
2017-10-06T20:10:46.999Z,8.75
2017-10-06T20:11:57.283Z,8.79
2017-10-06T20:13:07.660Z,8.87
2017-10-06T20:14:17.293Z,8.96
2017-10-06T20:15:27.579Z,9.08
2017-10-06T20:16:37.213Z,9.13
2017-10-06T20:17:47.490Z,9.3
2017-10-06T20:18:57.877Z,9.31
2017-10-06T20:20:07.833Z,9.42
2017-10-06T20:21:18.120Z,9.45
2017-10-06T20:22:27.753Z,9.48
2017-10-06T20:23:38.032Z,9.52
2017-10-06T20:24:48.094Z,9.55
2017-10-06T20:25:57.727Z,9.52
2017-10-06T20:27:07.681Z,9.54
2017-10-06T20:28:17.347Z,9.58
2017-10-06T20:29:27.629Z,9.52
2017-10-06T20:30:38.005Z,9.51
2017-10-06T20:31:47.961Z,9.56
2017-10-06T20:32:57.919Z,9.54
2017-10-06T20:34:08.198Z,9.51
2017-10-06T20:35:18.169Z,9.51
2017-10-06T20:36:28.545Z,9.47
2017-10-06T20:37:38.825Z,9.45
2017-10-06T20:38:48.783Z,9.42
2017-10-06T20:39:58.417Z,9.36
2017-10-06T20:41:08.704Z,9.33
2017-10-06T20:42:18.443Z,9.19
2017-10-06T20:43:28.722Z,9.16
2017-10-06T20:44:39.001Z,9.11
2017-10-06T20:45:48.963Z,9.09
2017-10-06T20:46:58.923Z,9.02
2017-10-06T20:48:09.301Z,8.95
2017-10-06T20:49:18.935Z,8.82
2017-10-06T20:50:28.891Z,8.82
2017-10-06T20:51:39.169Z,8.78
2017-10-06T20:52:49.446Z,8.77
2017-10-06T20:53:59.502Z,8.79
2017-10-06T20:55:09.820Z,8.75
2017-10-06T20:56:19.777Z,8.75
2017-10-06T20:57:30.055Z,8.71
2017-10-06T20:58:39.689Z,8.63
2017-10-06T20:59:50.073Z,8.74
2017-10-06T21:01:00.353Z,8.57
2017-10-06T21:02:10.633Z,8.54
2017-10-06T21:03:20.595Z,8.54
2017-10-06T21:04:30.230Z,8.59
2017-10-06T21:05:40.608Z,8.57
2017-10-06T21:06:50.243Z,8.56
2017-10-06T21:08:00.199Z,8.57
2017-10-06T21:09:10.479Z,8.66
2017-10-06T21:10:20.758Z,8.71
2017-10-06T21:11:30.814Z,8.6
2017-10-06T21:12:41.094Z,8.66
2017-10-06T21:13:51.368Z,8.74
2017-10-06T21:15:01.648Z,8.69
2017-10-06T21:16:11.607Z,8.78
2017-10-06T21:17:21.358Z,8.75
2017-10-06T21:18:31.320Z,8.77
2017-10-06T21:19:41.284Z,8.71
2017-10-06T21:20:51.247Z,8.77
2017-10-06T21:22:00.884Z,8.79
2017-10-06T21:23:11.096Z,8.71
2017-10-06T21:24:21.374Z,8.66
2017-10-06T21:25:31.333Z,8.77
2017-10-06T21:26:41.288Z,8.74
2017-10-06T21:27:51.243Z,8.75
2017-10-06T21:29:01.307Z,8.75
2017-10-06T21:30:11.589Z,8.75
2017-10-06T21:31:21.870Z,8.74
2017-10-06T21:32:31.825Z,8.68
2017-10-06T21:33:41.783Z,8.72
2017-10-06T21:34:52.360Z,8.72
2017-10-06T21:36:02.640Z,8.66
2017-10-06T21:37:12.275Z,8.84
2017-10-06T21:38:22.227Z,8.82
2017-10-06T21:39:32.188Z,8.77
2017-10-06T21:40:42.242Z,8.79
2017-10-06T21:41:52.520Z,8.74
2017-10-06T21:43:02.480Z,8.75
2017-10-06T21:44:12.442Z,8.77
2017-10-06T21:45:22.073Z,8.66
2017-10-06T21:46:32.462Z,8.75
2017-10-06T21:47:42.424Z,8.72
2017-10-06T21:48:52.702Z,8.75
2017-10-06T21:50:02.660Z,8.72
2017-10-06T21:51:12.311Z,8.68
2017-10-06T21:52:22.613Z,8.66
2017-10-06T21:53:32.893Z,8.79
2017-10-06T21:54:43.173Z,8.71
2017-10-06T21:55:53.136Z,8.69
2017-10-06T21:57:03.089Z,8.69
2017-10-06T21:58:12.500Z,8.72
2017-10-06T21:59:22.782Z,8.66
2017-10-06T22:00:33.057Z,8.68
2017-10-06T22:01:43.334Z,8.75
2017-10-06T22:02:53.290Z,8.79
2017-10-06T22:04:03.345Z,8.74
2017-10-06T22:05:13.305Z,8.78
2017-10-06T22:06:22.938Z,8.87
2017-10-06T22:07:32.897Z,8.78
2017-10-06T22:08:42.561Z,8.71
2017-10-06T22:09:52.295Z,8.72
2017-10-06T22:11:01.925Z,8.71
2017-10-06T22:12:11.881Z,8.71
2017-10-06T22:13:21.514Z,8.72
2017-10-06T22:14:31.468Z,8.69
2017-10-06T22:15:41.868Z,8.57
2017-10-06T22:16:52.150Z,8.57
2017-10-06T22:18:02.428Z,8.52
2017-10-06T22:19:12.385Z,8.46
2017-10-06T22:20:22.665Z,8.41
2017-10-06T22:21:32.720Z,8.39
2017-10-06T22:22:42.994Z,8.32
2017-10-06T22:23:53.281Z,8.24
2017-10-06T22:25:02.921Z,8.21
2017-10-06T22:26:12.875Z,8.21
2017-10-06T22:27:22.932Z,8.18
2017-10-06T22:28:33.212Z,8.21
2017-10-06T22:29:43.487Z,8.23
2017-10-06T22:30:53.773Z,8.2
2017-10-06T22:32:04.065Z,8.2
2017-10-06T22:33:13.797Z,8.24
2017-10-06T22:34:23.749Z,8.18
2017-10-06T22:35:34.031Z,8.23
2017-10-06T22:36:43.989Z,8.2
2017-10-06T22:37:54.266Z,8.2
2017-10-06T22:39:04.941Z,8.17
2017-10-06T22:40:14.898Z,8.17
2017-10-06T22:41:25.168Z,8.18
2017-10-06T22:42:35.433Z,8.09
2017-10-06T22:43:45.706Z,8.09
2017-10-06T22:44:55.759Z,8.09
2017-10-06T22:46:06.028Z,8.09
2017-10-06T22:47:16.298Z,8.09
2017-10-06T22:48:26.569Z,8.21
2017-10-06T22:49:36.199Z,8.06
2017-10-06T22:50:48.565Z,8.13
2017-10-06T22:51:58.900Z,8.08
2017-10-06T22:53:09.171Z,8.06
2017-10-06T22:54:19.118Z,8.06
2017-10-06T22:55:29.391Z,8.02
2017-10-06T22:56:39.438Z,7.93
2017-10-06T22:57:49.725Z,7.91
2017-10-06T22:58:59.672Z,7.91
2017-10-06T23:00:09.626Z,7.9
2017-10-06T23:01:19.575Z,7.99
2017-10-06T23:02:30.159Z,7.98
2017-10-06T23:03:40.431Z,8.03
2017-10-06T23:04:50.391Z,7.91
2017-10-06T23:06:00.349Z,7.93
2017-10-06T23:07:10.627Z,7.98
2017-10-06T23:08:20.680Z,8.06
2017-10-06T23:09:30.960Z,8.03
2017-10-06T23:10:41.267Z,8.05
2017-10-06T23:11:51.538Z,7.95
2017-10-06T23:13:01.486Z,7.98
2017-10-06T23:14:13.865Z,8.01
2017-10-06T23:15:24.134Z,8.01
2017-10-06T23:16:34.411Z,8.05
2017-10-06T23:17:44.685Z,8.08